Time;durP1;ratioP1;P1;durP2;ratioP2;P2;SDS_P1;SDS_P2;PMS_P1;PMS_P2;Temp;Humidity;BMP_temperature;BMP_pressure;BME280_temperature;BME280_humidity;BME280_pressure;Samples;Min_cycle;Max_cycle;Signal;HPM_P1;HPM_P2
2023/07/14 00:01:29;;;;;;;;;1.25;1.00;;;;;18.86;61.53;101696.94;5026311;28;8821;-66
2023/07/14 00:03:56;;;;;;;;;2.25;2.25;;;;;18.85;61.77;101700.72;5019832;28;8857;-69
2023/07/14 00:06:22;;;;;;;;;2.50;2.50;;;;;18.86;61.53;101695.03;5028695;28;8855;-65
2023/07/14 00:08:50;;;;;;;;;2.00;2.00;;;;;18.82;61.62;101695.72;5022898;28;8864;-66
2023/07/14 00:11:21;;;;;;;;;1.00;1.00;;;;;18.77;61.89;101694.50;5024841;28;8944;-66
2023/07/14 00:13:53;;;;;;;;;1.75;1.75;;;;;18.80;62.16;101692.38;5028387;28;8836;-65
2023/07/14 00:16:23;;;;;;;;;1.00;1.00;;;;;18.80;62.04;101685.03;5008154;28;8832;-66
2023/07/14 00:18:50;;;;;;;;;2.00;2.00;;;;;18.79;62.22;101686.09;5048367;28;8821;-67
2023/07/14 00:21:23;;;;;;;;;2.00;2.00;;;;;18.79;62.36;101688.81;5039863;28;8856;-66
2023/07/14 00:23:56;;;;;;;;;1.25;1.25;;;;;18.77;62.74;101688.22;5030572;28;8882;-66
2023/07/14 00:26:22;;;;;;;;;2.25;0.25;;;;;18.77;62.51;101680.88;5022650;28;8863;-66
2023/07/14 00:28:50;;;;;;;;;1.75;1.50;;;;;18.76;62.36;101687.41;5044901;28;8876;-65
2023/07/14 00:31:19;;;;;;;;;2.75;2.00;;;;;18.76;62.57;101690.13;5027069;28;8852;-66
2023/07/14 00:33:51;;;;;;;;;1.75;1.75;;;;;18.74;62.53;101692.22;5032720;28;8828;-65
2023/07/14 00:36:18;;;;;;;;;3.00;2.00;;;;;18.69;62.52;101678.41;5029395;28;8801;-68
2023/07/14 00:38:45;;;;;;;;;2.00;1.00;;;;;18.68;62.56;101676.75;5047325;28;8852;-66
2023/07/14 00:41:21;;;;;;;;;2.00;2.00;;;;;18.66;62.47;101678.88;5032490;28;8832;-66
2023/07/14 00:43:49;;;;;;;;;2.25;2.00;;;;;18.66;62.73;101683.50;5021635;28;8846;-67
2023/07/14 00:46:31;;;;;;;;;0.75;0.75;;;;;18.66;62.92;101672.59;5025785;28;8839;-66
2023/07/14 00:49:04;;;;;;;;;2.25;1.00;;;;;18.65;62.97;101677.22;5039133;28;8860;-67
2023/07/14 00:51:34;;;;;;;;;2.75;2.25;;;;;18.65;62.85;101685.38;5023419;28;8915;-66
2023/07/14 00:54:00;;;;;;;;;2.00;2.00;;;;;18.65;63.00;101679.09;5026689;28;8840;-65
2023/07/14 00:56:42;;;;;;;;;1.00;1.00;;;;;18.64;63.17;101685.63;5023631;28;8860;-67
2023/07/14 00:59:14;;;;;;;;;2.00;1.25;;;;;18.59;63.45;101677.28;5038565;28;8856;-67
2023/07/14 01:02:16;;;;;;;;;2.00;1.00;;;;;18.58;63.65;101672.88;5022620;28;8855;-65
2023/07/14 01:04:46;;;;;;;;;1.75;1.75;;;;;18.58;63.72;101667.44;5023348;28;8835;-66
2023/07/14 01:07:15;;;;;;;;;1.50;1.50;;;;;18.57;64.09;101672.06;5026057;28;8895;-66
2023/07/14 01:09:46;;;;;;;;;1.75;1.75;;;;;18.58;64.16;101665.53;5044683;28;8872;-66
2023/07/14 01:12:18;;;;;;;;;2.00;1.00;;;;;18.59;64.18;101664.47;5025126;28;9565;-65
2023/07/14 01:14:48;;;;;;;;;3.50;3.00;;;;;18.57;64.28;101658.44;5029268;28;8832;-65
2023/07/14 01:17:15;;;;;;;;;3.00;1.75;;;;;18.57;64.54;101660.31;5028458;28;8856;-67
2023/07/14 01:19:54;;;;;;;;;1.00;1.00;;;;;18.54;64.33;101656.97;5024734;28;8824;-66
2023/07/14 01:22:36;;;;;;;;;3.25;2.75;;;;;18.51;64.60;101659.31;5021820;28;8873;-68
2023/07/14 01:25:20;;;;;;;;;2.00;2.00;;;;;18.50;64.75;101663.13;5030229;28;8955;-68
2023/07/14 01:27:47;;;;;;;;;1.75;1.50;;;;;18.49;64.95;101653.28;5031123;28;8850;-66
2023/07/14 01:30:16;;;;;;;;;2.00;2.00;;;;;18.49;64.78;101651.38;5030210;28;8842;-66
2023/07/14 01:32:50;;;;;;;;;1.50;1.25;;;;;18.46;65.00;101656.44;5030585;28;8970;-67
2023/07/14 01:35:28;;;;;;;;;2.25;2.25;;;;;18.44;65.00;101647.69;5021611;28;8842;-66
2023/07/14 01:37:55;;;;;;;;;2.00;1.25;;;;;18.43;64.88;101651.44;5030008;28;8816;-65
2023/07/14 01:40:23;;;;;;;;;2.25;1.75;;;;;18.39;65.06;101652.94;5028449;28;8939;-66
2023/07/14 01:42:54;;;;;;;;;1.00;1.00;;;;;18.38;65.02;101640.38;5029195;28;8975;-66
2023/07/14 01:45:23;;;;;;;;;2.75;2.00;;;;;18.37;65.24;101645.00;5031687;28;8829;-66
2023/07/14 01:47:54;;;;;;;;;3.00;3.00;;;;;18.37;65.15;101649.63;5030588;28;8926;-66
2023/07/14 01:50:33;;;;;;;;;1.67;1.67;;;;;18.35;65.10;101640.84;5028314;28;9541;-66
2023/07/14 01:53:05;;;;;;;;;2.00;2.00;;;;;18.33;65.41;101645.69;5030891;28;8945;-68
2023/07/14 01:55:34;;;;;;;;;1.75;1.75;;;;;18.32;65.54;101638.59;5024539;28;8919;-66
2023/07/14 01:58:07;;;;;;;;;1.25;1.25;;;;;18.29;65.69;101640.69;5028029;28;8840;-66
2023/07/14 02:00:36;;;;;;;;;2.00;2.00;;;;;18.27;65.70;101634.66;5020665;28;8827;-65
2023/07/14 02:03:06;;;;;;;;;2.50;2.50;;;;;18.27;65.87;101642.81;5043542;28;9668;-66
2023/07/14 02:05:36;;;;;;;;;4.00;3.25;;;;;18.25;65.89;101641.38;5027815;28;8906;-69
2023/07/14 02:08:10;;;;;;;;;2.00;2.00;;;;;18.23;66.09;101638.03;5028162;28;8934;-66
2023/07/14 02:10:36;;;;;;;;;3.00;2.00;;;;;18.21;66.11;101640.16;5028786;28;8914;-67
2023/07/14 02:13:05;;;;;;;;;3.00;3.00;;;;;18.17;66.55;101636.22;5028327;28;9013;-66
2023/07/14 02:15:33;;;;;;;;;1.75;1.75;;;;;18.12;66.58;101634.16;5028321;28;8832;-66
2023/07/14 02:18:01;;;;;;;;;2.33;2.33;;;;;18.13;66.99;101632.28;5030435;28;8887;-65
2023/07/14 02:20:37;;;;;;;;;3.00;1.50;;;;;18.14;66.81;101633.94;5027740;28;8914;-65
2023/07/14 02:23:05;;;;;;;;;1.00;1.00;;;;;18.11;66.81;101629.78;5035198;28;8818;-66
2023/07/14 02:25:37;;;;;;;;;1.00;1.00;;;;;18.11;66.83;101628.91;5053474;28;8909;-65
2023/07/14 02:28:03;;;;;;;;;2.00;1.25;;;;;18.08;67.17;101630.22;5029753;28;9720;-66
2023/07/14 02:30:34;;;;;;;;;4.00;2.25;;;;;18.10;67.09;101630.00;5021587;28;8864;-65
2023/07/14 02:33:16;;;;;;;;;4.33;3.00;;;;;18.08;67.12;101632.94;5044365;28;9510;-65
2023/07/14 02:35:58;;;;;;;;;4.00;2.25;;;;;18.10;67.27;101630.00;5029323;28;8936;-64
2023/07/14 02:38:25;;;;;;;;;2.67;2.33;;;;;18.06;66.98;101621.44;5019636;28;8876;-65
2023/07/14 02:41:07;;;;;;;;;2.75;2.25;;;;;18.03;67.38;101621.91;5027523;28;8928;-65
2023/07/14 02:43:34;;;;;;;;;3.25;3.00;;;;;18.03;67.31;101611.84;5020981;28;8973;-64
2023/07/14 02:46:12;;;;;;;;;2.00;2.00;;;;;18.02;66.98;101614.75;5027723;28;9554;-65
2023/07/14 02:48:42;;;;;;;;;3.00;3.00;;;;;17.99;67.55;101623.41;5021798;28;8958;-65
2023/07/14 02:51:09;;;;;;;;;2.00;2.00;;;;;17.98;67.44;101621.72;5027621;28;9779;-66
2023/07/14 02:53:36;;;;;;;;;2.67;1.67;;;;;17.95;67.39;101614.00;5028885;28;9768;-68
2023/07/14 02:56:03;;;;;;;;;2.00;2.00;;;;;17.94;67.57;101613.16;5028213;28;8920;-68
2023/07/14 02:58:31;;;;;;;;;1.75;1.75;;;;;17.93;67.28;101616.13;5024563;28;8916;-68
2023/07/14 03:00:58;;;;;;;;;2.00;2.00;;;;;17.92;67.45;101617.19;5022796;28;8846;-68
2023/07/14 03:03:26;;;;;;;;;6.00;6.00;;;;;17.85;67.63;101613.69;5026875;28;9681;-68
2023/07/14 03:05:54;;;;;;;;;2.00;2.00;;;;;17.84;67.82;101621.03;5027828;28;8966;-65
2023/07/14 03:08:21;;;;;;;;;3.00;2.00;;;;;17.86;67.60;101616.16;5028145;28;8942;-66
2023/07/14 03:10:56;;;;;;;;;4.00;4.00;;;;;17.87;67.32;101611.59;5025265;28;8888;-65
2023/07/14 03:13:22;;;;;;;;;2.00;2.00;;;;;17.87;67.77;101609.69;5024419;28;8951;-67
2023/07/14 03:15:49;;;;;;;;;3.00;3.00;;;;;17.85;67.87;101610.97;5034039;28;9040;-67
2023/07/14 03:18:16;;;;;;;;;3.33;3.00;;;;;17.84;67.92;101606.56;5030164;28;8933;-66
2023/07/14 03:20:43;;;;;;;;;4.00;3.00;;;;;17.83;67.68;101610.38;5023207;28;8930;-65
2023/07/14 03:23:09;;;;;;;;;5.33;3.00;;;;;17.83;67.99;101604.91;5027699;28;8916;-66
2023/07/14 03:25:37;;;;;;;;;3.00;3.00;;;;;17.82;67.89;101600.50;5030928;28;9061;-67
2023/07/14 03:28:03;;;;;;;;;3.33;2.00;;;;;17.81;67.98;101602.41;5029352;28;8837;-66
2023/07/14 03:30:36;;;;;;;;;3.25;2.25;;;;;17.81;68.06;101607.00;5027266;28;9070;-66
2023/07/14 03:33:02;;;;;;;;;3.00;2.25;;;;;17.82;67.78;101614.13;5028724;28;8846;-66
2023/07/14 03:35:29;;;;;;;;;2.00;2.00;;;;;17.83;68.17;101607.63;5024972;28;9530;-66
2023/07/14 03:37:55;;;;;;;;;3.00;3.00;;;;;17.80;68.00;101603.47;5026880;28;8879;-66
2023/07/14 03:40:22;;;;;;;;;3.00;3.00;;;;;17.76;68.04;101597.63;5022877;28;8922;-66
2023/07/14 03:42:48;;;;;;;;;5.00;3.00;;;;;17.75;67.85;101603.31;5027220;28;9006;-66
2023/07/14 03:45:15;;;;;;;;;4.00;3.00;;;;;17.75;68.31;101600.59;5028951;28;8918;-67
2023/07/14 03:47:43;;;;;;;;;4.00;4.00;;;;;17.72;68.08;101596.38;5026034;28;9207;-67
2023/07/14 03:50:11;;;;;;;;;4.00;4.00;;;;;17.70;67.67;101595.78;5027547;28;9172;-67
2023/07/14 03:52:38;;;;;;;;;2.33;2.33;;;;;17.70;67.80;101593.06;5025262;28;9006;-67
2023/07/14 03:55:05;;;;;;;;;2.67;2.67;;;;;17.70;67.78;101595.78;5040104;28;9009;-66
2023/07/14 03:57:31;;;;;;;;;3.33;3.33;;;;;17.66;67.58;101585.53;5027667;28;9079;-66
2023/07/14 04:00:11;;;;;;;;;4.00;2.67;;;;;17.63;67.78;101586.00;5022602;28;8923;-66
2023/07/14 04:02:45;;;;;;;;;1.50;1.50;;;;;17.62;67.92;101587.84;5027554;28;8976;-68
2023/07/14 04:05:13;;;;;;;;;4.67;3.67;;;;;17.61;68.12;101585.38;5026706;28;8855;-66
2023/07/14 04:07:42;;;;;;;;;2.00;2.00;;;;;17.62;68.01;101582.41;5029323;28;8930;-66
2023/07/14 04:10:09;;;;;;;;;2.67;2.67;;;;;17.63;68.34;101584.09;5029848;28;8848;-66
2023/07/14 04:12:36;;;;;;;;;2.00;2.00;;;;;17.63;68.04;101577.84;5027280;28;8954;-67
2023/07/14 04:15:03;;;;;;;;;5.00;3.00;;;;;17.59;67.80;101584.78;5030862;28;9005;-66
2023/07/14 04:17:34;;;;;;;;;2.75;2.00;;;;;17.62;67.95;101589.75;5031595;28;9170;-66
2023/07/14 04:20:00;;;;;;;;;2.67;2.67;;;;;17.60;68.16;101584.53;5030565;28;8836;-66
2023/07/14 04:22:27;;;;;;;;;7.67;2.67;;;;;17.60;68.12;101581.81;5026405;28;9016;-66
2023/07/14 04:24:53;;;;;;;;;5.67;2.67;;;;;17.63;67.76;101591.44;5032725;28;9000;-67
2023/07/14 04:27:20;;;;;;;;;1.33;1.33;;;;;17.61;67.97;101580.75;5031278;28;10032;-66
2023/07/14 04:29:49;;;;;;;;;1.50;1.50;;;;;17.63;68.28;101586.81;5031953;28;8902;-65
2023/07/14 04:32:15;;;;;;;;;4.00;3.00;;;;;17.64;67.76;101590.38;5045740;28;8964;-65
2023/07/14 04:34:42;;;;;;;;;1.50;1.50;;;;;17.65;67.94;101592.03;5030939;28;8928;-69
2023/07/14 04:37:09;;;;;;;;;6.00;4.33;;;;;17.58;67.91;101591.25;5028819;28;8844;-66
2023/07/14 04:39:36;;;;;;;;;2.33;2.33;;;;;17.51;67.75;101589.44;5026782;28;9008;-66
2023/07/14 04:42:04;;;;;;;;;5.00;5.00;;;;;17.45;67.69;101587.59;5029612;28;8991;-66
2023/07/14 04:44:30;;;;;;;;;3.33;3.33;;;;;17.41;67.61;101588.25;5034099;28;9657;-68
2023/07/14 04:46:58;;;;;;;;;7.00;4.67;;;;;17.39;67.76;101587.66;5029809;28;9058;-67
2023/07/14 04:49:25;;;;;;;;;3.67;3.00;;;;;17.40;68.04;101583.88;5025270;28;9030;-66
2023/07/14 04:51:51;;;;;;;;;3.33;3.00;;;;;17.44;67.93;101590.53;5027028;28;9029;-66
2023/07/14 04:54:18;;;;;;;;;2.00;2.00;;;;;17.43;67.49;101578.81;5041716;28;8926;-66
2023/07/14 04:56:45;;;;;;;;;2.00;2.00;;;;;17.44;67.71;101580.47;5026838;28;8995;-67
2023/07/14 04:59:11;;;;;;;;;2.00;2.00;;;;;17.46;67.53;101581.13;5033503;28;8936;-67
2023/07/14 05:01:38;;;;;;;;;2.00;2.00;;;;;17.47;67.62;101574.59;5031735;28;8934;-67
2023/07/14 05:04:05;;;;;;;;;3.00;3.00;;;;;17.44;67.55;101580.47;5029547;28;8919;-66
2023/07/14 05:06:31;;;;;;;;;2.67;2.00;;;;;17.48;67.50;101576.25;5028894;28;8943;-67
2023/07/14 05:08:58;;;;;;;;;2.00;2.00;;;;;17.46;67.24;101578.38;5028155;28;9098;-67
2023/07/14 05:11:26;;;;;;;;;3.00;3.00;;;;;17.48;67.29;101575.44;5023364;28;8970;-65
2023/07/14 05:13:53;;;;;;;;;1.00;1.00;;;;;17.46;67.05;101570.22;5034630;28;8964;-65
2023/07/14 05:16:20;;;;;;;;;4.50;4.50;;;;;17.41;67.29;101569.19;5044312;28;8997;-68
2023/07/14 05:18:47;;;;;;;;;3.00;1.00;;;;;17.46;67.52;101572.09;5026473;28;8805;-67
2023/07/14 05:21:13;;;;;;;;;3.67;2.00;;;;;17.46;67.14;101574.81;5020683;28;8864;-67
2023/07/14 05:23:40;;;;;;;;;2.00;1.00;;;;;17.44;67.12;101569.59;5029865;28;8953;-66
2023/07/14 05:26:06;;;;;;;;;2.67;1.67;;;;;17.46;67.27;101572.94;5027170;28;8832;-66
2023/07/14 05:28:33;;;;;;;;;5.50;3.25;;;;;17.45;67.18;101565.81;5035519;28;8943;-66
2023/07/14 05:31:04;;;;;;;;;3.00;1.33;;;;;17.43;67.17;101561.66;5024074;28;8844;-67
2023/07/14 05:33:31;;;;;;;;;3.00;2.00;;;;;17.42;67.56;101563.56;5028094;28;8937;-67
2023/07/14 05:35:57;;;;;;;;;1.75;1.75;;;;;17.49;67.99;101569.75;5035223;28;8940;-66
2023/07/14 05:38:24;;;;;;;;;5.50;2.00;;;;;17.59;67.82;101554.84;5047029;28;8852;-66
2023/07/14 05:40:53;;;;;;;;;6.00;3.00;;;;;17.71;67.74;101553.88;5042441;28;8866;-67
2023/07/14 05:43:26;;;;;;;;;2.00;2.00;;;;;17.91;67.12;101558.31;5027700;28;9187;-66
2023/07/14 05:45:53;;;;;;;;;3.00;2.00;;;;;18.04;66.86;101564.44;5030749;28;8833;-67
2023/07/14 05:48:19;;;;;;;;;1.25;1.25;;;;;18.18;66.68;101562.41;5041593;28;8952;-65
2023/07/14 05:50:46;;;;;;;;;5.50;5.50;;;;;18.23;65.95;101557.13;5023699;28;9565;-65
2023/07/14 05:53:15;;;;;;;;;3.75;3.75;;;;;18.32;65.73;101563.09;5025825;28;8941;-68
2023/07/14 05:55:42;;;;;;;;;4.00;3.75;;;;;18.35;65.51;101559.91;5027918;28;9545;-68
2023/07/14 05:58:08;;;;;;;;;5.00;3.50;;;;;18.45;65.19;101557.47;5029923;28;8840;-66
2023/07/14 06:00:38;;;;;;;;;3.25;2.50;;;;;18.53;64.95;101556.34;5023236;28;8843;-67
2023/07/14 06:03:12;;;;;;;;;9.67;8.00;;;;;18.42;64.94;101566.09;5029094;28;8852;-66
2023/07/14 06:05:40;;;;;;;;;3.25;3.00;;;;;18.37;65.00;101556.97;5029467;28;8947;-67
2023/07/14 06:08:10;;;;;;;;;6.50;5.00;;;;;18.37;65.16;101548.78;5046454;28;8931;-66
2023/07/14 06:10:36;;;;;;;;;6.00;5.25;;;;;18.35;65.25;101550.88;5030586;28;8836;-66
2023/07/14 06:13:03;;;;;;;;;5.00;4.00;;;;;18.29;65.56;101548.03;5028264;28;8915;-66
2023/07/14 06:15:30;;;;;;;;;8.33;5.00;;;;;18.29;65.56;101550.75;5011200;28;8912;-65
2023/07/14 06:17:56;;;;;;;;;3.00;3.00;;;;;18.31;65.46;101542.34;5010197;28;8976;-65
2023/07/14 06:20:23;;;;;;;;;4.25;4.25;;;;;18.34;65.91;101554.69;5009659;28;8983;-66
2023/07/14 06:22:50;;;;;;;;;5.75;4.00;;;;;18.38;65.70;101547.72;5011250;28;8843;-66
2023/07/14 06:25:18;;;;;;;;;8.00;6.50;;;;;18.32;65.86;101538.56;5011287;28;8831;-65
2023/07/14 06:27:45;;;;;;;;;6.75;4.50;;;;;18.27;66.26;101547.44;5011115;28;9528;-66
2023/07/14 06:30:13;;;;;;;;;5.25;4.50;;;;;18.21;66.27;101539.31;5011017;28;8895;-65
2023/07/14 06:32:39;;;;;;;;;6.75;6.75;;;;;18.24;66.24;101544.31;5009745;28;8842;-67
2023/07/14 06:35:08;;;;;;;;;12.33;8.33;;;;;18.23;66.33;101542.63;5009707;28;8847;-66
2023/07/14 06:37:34;;;;;;;;;5.75;4.25;;;;;18.28;66.21;101531.91;5011017;28;8925;-66
2023/07/14 06:40:01;;;;;;;;;5.00;5.00;;;;;18.32;66.34;101537.75;5010909;28;8898;-66
2023/07/14 06:42:28;;;;;;;;;9.00;7.33;;;;;18.36;66.37;101533.50;5010733;28;8917;-65
2023/07/14 06:44:54;;;;;;;;;7.00;7.00;;;;;18.37;66.62;101529.69;5011063;28;8914;-66
2023/07/14 06:47:21;;;;;;;;;7.67;7.67;;;;;18.37;66.53;101533.25;5023907;28;8928;-65
2023/07/14 06:49:47;;;;;;;;;8.00;8.00;;;;;18.32;66.72;101535.84;5030467;28;9004;-65
2023/07/14 06:52:14;;;;;;;;;3.75;3.75;;;;;18.36;66.78;101528.03;5016480;28;8985;-65
2023/07/14 06:54:41;;;;;;;;;8.25;8.25;;;;;18.38;66.80;101525.91;5010932;28;9552;-64
2023/07/14 06:57:08;;;;;;;;;8.33;8.33;;;;;18.40;66.83;101523.78;5010789;28;8843;-68
2023/07/14 06:59:35;;;;;;;;;6.50;6.00;;;;;18.38;66.81;101524.00;5023958;28;9796;-67
2023/07/14 07:02:01;;;;;;;;;7.33;6.67;;;;;18.40;67.03;101530.06;5028668;28;8952;-67
2023/07/14 07:04:32;;;;;;;;;8.33;7.33;;;;;18.45;67.42;101530.22;5023257;28;9024;-66
2023/07/14 07:06:59;;;;;;;;;11.67;8.00;;;;;18.55;66.96;101526.94;5009250;28;8981;-66
2023/07/14 07:09:25;;;;;;;;;8.00;6.00;;;;;18.60;66.60;101529.81;5010528;28;8972;-65
2023/07/14 07:11:52;;;;;;;;;12.33;10.33;;;;;18.60;66.72;101518.91;5010082;28;8819;-65
2023/07/14 07:14:18;;;;;;;;;12.00;10.33;;;;;18.58;66.84;101529.19;5010138;28;9104;-65
2023/07/14 07:16:44;;;;;;;;;8.50;8.00;;;;;18.59;67.06;101522.66;5010509;28;9074;-65
2023/07/14 07:19:11;;;;;;;;;8.33;7.33;;;;;18.67;67.17;101514.16;5023655;28;9541;-66
2023/07/14 07:21:39;;;;;;;;;8.00;8.00;;;;;18.73;67.08;101513.28;5010373;28;8995;-66
2023/07/14 07:24:06;;;;;;;;;9.33;7.00;;;;;18.67;67.16;101514.16;5026010;28;8866;-66
2023/07/14 07:26:32;;;;;;;;;9.25;8.25;;;;;18.66;67.18;101517.97;5021639;28;9099;-66
2023/07/14 07:29:00;;;;;;;;;10.50;8.75;;;;;18.66;67.16;101511.69;5029248;28;8809;-67
2023/07/14 07:31:28;;;;;;;;;9.00;8.00;;;;;18.68;67.29;101518.59;5027616;28;9661;-67
2023/07/14 07:33:55;;;;;;;;;11.00;8.25;;;;;18.66;67.30;101511.69;5028024;28;8850;-66
2023/07/14 07:36:24;;;;;;;;;6.25;6.00;;;;;18.65;67.38;101512.75;5013395;28;8862;-67
2023/07/14 07:38:51;;;;;;;;;10.67;9.67;;;;;18.60;67.41;101508.00;5010139;28;9558;-67
2023/07/14 07:41:22;;;;;;;;;10.00;9.25;;;;;18.57;67.47;101503.00;5012286;28;8939;-66
2023/07/14 07:43:49;;;;;;;;;12.67;7.33;;;;;18.47;67.65;101506.28;5013064;28;8854;-65
2023/07/14 07:46:16;;;;;;;;;11.33;8.00;;;;;18.52;67.92;101508.31;5015264;28;8997;-66
2023/07/14 07:48:44;;;;;;;;;8.00;8.00;;;;;18.58;68.06;101498.38;5014136;28;8909;-66
2023/07/14 07:51:12;;;;;;;;;9.00;9.00;;;;;18.65;67.89;101499.13;5013830;28;9544;-64
2023/07/14 07:53:39;;;;;;;;;11.33;9.67;;;;;18.71;67.88;101500.94;5014048;28;8824;-65
2023/07/14 07:56:05;;;;;;;;;12.00;10.00;;;;;18.74;67.71;101497.75;5014175;28;8996;-67
2023/07/14 07:58:32;;;;;;;;;12.00;10.00;;;;;18.77;67.34;101489.09;5012818;28;8812;-65
2023/07/14 08:01:01;;;;;;;;;8.50;8.50;;;;;18.81;67.50;101493.03;5030776;28;8845;-66
2023/07/14 08:03:28;;;;;;;;;11.75;10.75;;;;;18.81;67.57;101493.03;5034130;28;8828;-66
2023/07/14 08:06:04;;;;;;;;;12.00;10.67;;;;;18.77;67.61;101489.94;5033296;28;8840;-67
2023/07/14 08:08:32;;;;;;;;;14.67;13.67;;;;;18.73;67.76;101494.19;5032222;28;8924;-67
2023/07/14 08:10:59;;;;;;;;;15.00;13.00;;;;;18.69;67.63;101503.88;5033077;28;9063;-66
2023/07/14 08:13:28;;;;;;;;;10.00;10.00;;;;;18.68;67.77;101487.75;5033386;28;8982;-67
2023/07/14 08:15:57;;;;;;;;;15.67;14.67;;;;;18.60;67.97;101485.34;5031683;28;8995;-65
2023/07/14 08:18:24;;;;;;;;;11.00;10.00;;;;;18.57;68.14;101492.09;5019024;28;9265;-65
2023/07/14 08:20:51;;;;;;;;;13.33;12.00;;;;;18.60;68.32;101497.09;5022516;28;9086;-66
2023/07/14 08:23:20;;;;;;;;;8.75;8.75;;;;;18.69;68.08;101490.25;5031997;28;9789;-66
2023/07/14 08:25:56;;;;;;;;;7.67;7.00;;;;;18.87;67.92;101494.00;5031714;28;8851;-65
2023/07/14 08:28:23;;;;;;;;;13.33;11.67;;;;;19.00;68.00;101488.34;5033051;28;8904;-67
2023/07/14 08:30:52;;;;;;;;;13.00;12.33;;;;;19.07;67.54;101490.94;5032698;28;9075;-67
2023/07/14 08:33:19;;;;;;;;;14.00;12.67;;;;;19.11;67.45;101492.13;5030967;28;8996;-67
2023/07/14 08:35:49;;;;;;;;;14.00;12.67;;;;;19.14;67.48;101489.78;5033141;28;9760;-66
2023/07/14 08:38:16;;;;;;;;;15.00;15.00;;;;;19.16;66.87;101490.38;5013916;28;9658;-67
2023/07/14 08:40:50;;;;;;;;;9.67;9.67;;;;;19.24;66.70;101489.19;5015428;28;9008;-65
2023/07/14 08:43:52;;;;;;;;;13.00;11.50;;;;;19.30;66.85;101490.16;5031930;28;9722;-67
2023/07/14 08:46:38;;;;;;;;;11.50;11.25;;;;;19.32;66.45;101479.81;5032632;28;8845;-67
2023/07/14 08:49:20;;;;;;;;;13.00;12.75;;;;;19.36;66.11;101490.00;5032753;28;8886;-66
2023/07/14 08:51:53;;;;;;;;;12.00;10.67;;;;;19.31;65.45;101492.63;5030067;28;8844;-68
2023/07/14 08:54:24;;;;;;;;;13.75;13.25;;;;;19.30;65.85;101499.16;5032745;28;8904;-67
2023/07/14 08:56:52;;;;;;;;;17.00;14.67;;;;;19.26;65.84;101495.25;5032731;28;8875;-66
2023/07/14 08:59:33;;;;;;;;;10.50;8.75;;;;;19.31;65.85;101494.53;5031707;28;8993;-66
2023/07/14 09:02:03;;;;;;;;;15.33;14.00;;;;;19.37;65.91;101496.34;5031868;28;8978;-67
2023/07/14 09:04:37;;;;;;;;;11.00;10.00;;;;;19.43;65.62;101504.41;5032479;28;8917;-65
2023/07/14 09:07:09;;;;;;;;;15.00;11.33;;;;;19.43;65.87;101490.75;5012707;28;8937;-66
2023/07/14 09:09:40;;;;;;;;;7.50;7.25;;;;;19.47;65.95;101493.84;5012790;28;8935;-66
2023/07/14 09:12:31;;;;;;;;;10.50;10.00;;;;;19.51;65.87;101495.00;5012437;28;8866;-66
2023/07/14 09:15:19;;;;;;;;;11.00;9.50;;;;;19.45;65.86;101491.34;5012379;28;8949;-66
2023/07/14 09:18:30;;;;;;;;;11.75;8.25;;;;;19.40;65.96;101491.22;5015810;28;8825;-66
2023/07/14 09:21:19;;;;;;;;;12.00;10.25;;;;;19.39;65.77;101480.53;5027167;28;8887;-66
2023/07/14 09:24:10;;;;;;;;;9.00;9.00;;;;;19.45;65.70;101483.16;5028402;28;8836;-65
2023/07/14 09:26:41;;;;;;;;;9.25;7.75;;;;;19.49;65.54;101486.25;5029599;28;9004;-65
2023/07/14 09:29:12;;;;;;;;;15.33;14.00;;;;;19.50;65.30;101482.44;5026573;28;8825;-66
2023/07/14 09:31:44;;;;;;;;;11.25;8.75;;;;;19.50;65.34;101475.06;5025386;28;8997;-66
2023/07/14 09:34:25;;;;;;;;;10.50;9.50;;;;;19.45;65.53;101469.50;5029700;28;8828;-67
2023/07/14 09:36:54;;;;;;;;;8.50;8.00;;;;;19.47;65.72;101464.63;5031779;28;8825;-66
2023/07/14 09:39:28;;;;;;;;;9.00;8.00;;;;;19.54;65.77;101467.25;5026387;28;8885;-66
2023/07/14 09:41:59;;;;;;;;;11.67;11.67;;;;;19.56;65.83;101467.81;5030219;28;8879;-66
2023/07/14 09:44:25;;;;;;;;;9.00;9.00;;;;;19.56;65.30;101465.09;5022140;28;8910;-66
2023/07/14 09:46:53;;;;;;;;;10.25;9.00;;;;;19.57;64.91;101465.91;5015827;28;8920;-66
2023/07/14 09:49:38;;;;;;;;;11.50;10.00;;;;;19.63;65.04;101470.47;5027695;28;9552;-65
2023/07/14 09:52:14;;;;;;;;;13.50;13.25;;;;;19.60;64.79;101463.53;5030695;28;8991;-64
2023/07/14 09:54:57;;;;;;;;;16.00;15.75;;;;;19.62;64.84;101460.63;5027673;28;8820;-65
2023/07/14 09:57:32;;;;;;;;;9.50;9.50;;;;;19.65;64.76;101466.44;5043544;28;8845;-68
2023/07/14 10:00:17;;;;;;;;;5.75;5.50;;;;;19.69;64.58;101447.66;5027038;28;8925;-65
2023/07/14 10:02:43;;;;;;;;;10.25;9.00;;;;;19.72;64.47;101450.72;5019034;28;8824;-65
2023/07/14 10:05:22;;;;;;;;;9.00;8.75;;;;;19.87;64.27;101441.22;5027513;28;8873;-66
2023/07/14 10:07:48;;;;;;;;;10.00;10.00;;;;;19.91;63.72;101445.94;5027352;28;9613;-65
2023/07/14 10:10:24;;;;;;;;;10.00;8.50;;;;;19.95;63.44;101443.56;5023147;28;8880;-67
2023/07/14 10:12:52;;;;;;;;;10.00;10.00;;;;;20.04;63.29;101444.84;5030475;28;8835;-64
2023/07/14 10:15:35;;;;;;;;;8.00;8.00;;;;;20.19;62.87;101439.69;5045640;28;8833;-65
2023/07/14 10:18:05;;;;;;;;;12.50;11.25;;;;;20.25;62.07;101438.72;5031038;28;8816;-67
2023/07/14 10:20:33;;;;;;;;;13.00;10.75;;;;;20.25;60.91;101433.25;5025042;28;8843;-66
2023/07/14 10:23:00;;;;;;;;;13.50;12.25;;;;;20.19;60.70;101441.59;5011269;28;8831;-66
2023/07/14 10:25:30;;;;;;;;;9.75;8.00;;;;;20.22;60.53;101430.16;5014131;28;8844;-66
2023/07/14 10:28:10;;;;;;;;;9.75;9.00;;;;;20.31;60.14;101423.22;5032339;28;8875;-66
2023/07/14 10:30:49;;;;;;;;;9.50;9.50;;;;;20.40;59.48;101427.22;5016169;28;9588;-64
2023/07/14 10:33:26;;;;;;;;;11.00;8.00;;;;;20.54;59.33;101425.06;5030769;28;8848;-66
2023/07/14 10:36:07;;;;;;;;;9.50;9.25;;;;;20.55;59.22;101426.72;5046343;28;8910;-66
2023/07/14 10:38:40;;;;;;;;;8.50;7.75;;;;;20.61;59.19;101428.44;5030594;28;8808;-64
2023/07/14 10:41:10;;;;;;;;;8.00;8.00;;;;;20.76;59.63;101411.47;5030635;28;8878;-64
2023/07/14 10:43:49;;;;;;;;;7.00;7.00;;;;;20.82;59.77;101410.47;5021833;28;8933;-64
2023/07/14 10:46:19;;;;;;;;;9.75;8.25;;;;;20.82;59.31;101410.47;5019482;28;8839;-65
2023/07/14 10:48:53;;;;;;;;;7.25;7.25;;;;;20.78;58.57;101408.47;5030411;28;9585;-65
2023/07/14 10:51:41;;;;;;;;;10.25;9.00;;;;;20.76;58.44;101413.38;5029785;28;8824;-66
2023/07/14 10:54:19;;;;;;;;;10.75;9.50;;;;;20.67;57.84;101408.31;5030655;28;8943;-65
2023/07/14 10:57:00;;;;;;;;;7.00;7.00;;;;;20.66;57.99;101412.13;5045931;28;8860;-65
2023/07/14 10:59:31;;;;;;;;;9.25;8.00;;;;;20.65;58.25;101415.09;5029551;28;9226;-66
2023/07/14 11:02:11;;;;;;;;;10.00;10.00;;;;;20.67;58.33;101412.97;5010820;28;8847;-65
2023/07/14 11:04:42;;;;;;;;;10.75;10.25;;;;;20.63;57.91;101404.41;5016682;28;8840;-65
2023/07/14 11:07:16;;;;;;;;;7.00;6.75;;;;;20.66;58.34;101403.94;5012197;28;8885;-66
2023/07/14 11:09:45;;;;;;;;;6.00;6.00;;;;;20.76;58.34;101407.91;5009408;28;8835;-66
2023/07/14 11:12:25;;;;;;;;;7.50;5.00;;;;;20.77;58.01;101399.44;5008918;28;8851;-65
2023/07/14 11:15:15;;;;;;;;;8.00;8.00;;;;;20.79;58.35;101393.72;5010088;28;8949;-66
2023/07/14 11:17:59;;;;;;;;;8.00;7.50;;;;;20.78;57.82;101386.59;5025463;28;8831;-66
2023/07/14 11:20:39;;;;;;;;;6.75;3.50;;;;;20.83;57.74;101383.94;5011183;28;8823;-65
2023/07/14 11:23:24;;;;;;;;;4.00;4.00;;;;;20.85;58.16;101399.03;5010288;28;9575;-65
2023/07/14 11:26:19;;;;;;;;;8.25;8.00;;;;;20.79;57.05;101388.25;5010253;28;9536;-66
2023/07/14 11:29:12;;;;;;;;;4.00;4.00;;;;;20.78;57.38;101392.06;5010160;28;8827;-66
2023/07/14 11:31:54;;;;;;;;;2.00;2.00;;;;;20.75;57.03;101368.78;5010206;28;8897;-66
2023/07/14 11:34:37;;;;;;;;;3.75;3.75;;;;;20.79;57.62;101339.00;5015220;28;8832;-67
2023/07/14 11:37:14;;;;;;;;;4.50;4.50;;;;;20.82;57.44;101336.56;5021993;28;8847;-66
2023/07/14 11:39:46;;;;;;;;;3.25;3.00;;;;;20.84;57.18;101341.81;5008991;28;8843;-66
2023/07/14 11:42:21;;;;;;;;;2.00;2.00;;;;;20.85;56.95;101343.47;4992494;28;8945;-66
2023/07/14 11:44:49;;;;;;;;;7.25;5.00;;;;;20.83;56.50;101338.25;5009998;28;8831;-65
2023/07/14 11:47:38;;;;;;;;;4.00;3.75;;;;;20.78;56.21;101342.81;5010020;28;8830;-65
2023/07/14 11:50:17;;;;;;;;;2.00;2.00;;;;;20.79;56.32;101337.09;5010006;28;8835;-65